createdAt,value
2018-02-18T00:00:59.796Z,23.50
2018-02-18T00:02:00.224Z,23.41
2018-02-18T00:03:00.853Z,23.51
2018-02-18T00:05:24.109Z,23.32
2018-02-18T00:06:24.362Z,23.41
2018-02-18T00:08:56.194Z,23.41
2018-02-18T00:09:56.442Z,23.22
2018-02-18T00:10:56.694Z,23.41
2018-02-18T00:11:56.943Z,23.32
2018-02-18T00:12:57.191Z,23.41
2018-02-18T00:13:57.441Z,23.51
2018-02-18T00:14:57.697Z,23.51
2018-02-18T00:15:57.946Z,23.32
2018-02-18T00:16:58.190Z,23.32
2018-02-18T00:17:58.440Z,23.41
2018-02-18T00:18:58.687Z,23.61
2018-02-18T00:19:58.941Z,23.32
2018-02-18T00:20:59.188Z,23.51
2018-02-18T00:21:59.433Z,23.41
2018-02-18T00:23:01.222Z,23.41
2018-02-18T00:24:00.728Z,23.32
2018-02-18T00:25:00.181Z,23.31
2018-02-18T00:26:00.440Z,23.41
2018-02-18T00:27:00.684Z,23.41
2018-02-18T00:28:01.701Z,23.51
2018-02-18T00:29:01.707Z,23.41
2018-02-18T00:30:01.421Z,23.51
2018-02-18T00:31:01.672Z,23.32
2018-02-18T00:32:01.952Z,23.40
2018-02-18T00:33:02.160Z,23.41
2018-02-18T00:34:02.404Z,23.51
2018-02-18T00:35:02.655Z,23.41
2018-02-18T00:36:02.907Z,23.41
2018-02-18T00:37:03.156Z,23.40
2018-02-18T00:38:03.406Z,23.61
2018-02-18T00:39:03.663Z,23.32
2018-02-18T00:40:03.911Z,23.61
2018-02-18T00:41:04.178Z,23.61
2018-02-18T00:42:05.205Z,23.41
2018-02-18T00:43:04.638Z,23.41
2018-02-18T00:44:04.906Z,23.31
2018-02-18T00:45:05.148Z,23.41
2018-02-18T00:46:05.386Z,23.61
2018-02-18T00:47:05.635Z,23.41
2018-02-18T00:48:05.886Z,23.41
2018-02-18T00:49:06.803Z,23.41
2018-02-18T00:50:06.382Z,23.51
2018-02-18T00:51:07.305Z,23.41
2018-02-18T00:52:06.864Z,23.41
2018-02-18T00:53:07.119Z,23.71
2018-02-18T00:54:08.212Z,23.51
2018-02-18T00:55:07.602Z,23.51
2018-02-18T00:56:07.856Z,23.41
2018-02-18T00:57:08.098Z,23.51
2018-02-18T00:58:08.347Z,23.50
2018-02-18T00:59:08.608Z,23.21
2018-02-18T01:00:08.846Z,23.51
2018-02-18T01:01:09.083Z,23.51
2018-02-18T01:02:09.344Z,23.22
2018-02-18T01:03:09.579Z,23.22
2018-02-18T01:04:09.853Z,23.31
2018-02-18T01:05:10.712Z,23.32
2018-02-18T01:06:11.212Z,23.21
2018-02-18T01:07:10.765Z,23.61
2018-02-18T01:08:11.025Z,23.21
2018-02-18T01:09:11.271Z,23.50
2018-02-18T01:10:11.541Z,23.51
2018-02-18T01:11:11.782Z,23.61
2018-02-18T01:12:12.034Z,23.32
2018-02-18T01:13:12.298Z,23.32
2018-02-18T01:14:13.214Z,23.32
2018-02-18T01:15:12.813Z,23.51
2018-02-18T01:16:13.722Z,23.32
2018-02-18T01:17:14.242Z,23.32
2018-02-18T01:18:13.529Z,23.31
2018-02-18T01:19:13.772Z,23.41
2018-02-18T01:20:14.018Z,23.32
2018-02-18T01:21:14.267Z,23.41
2018-02-18T01:22:14.512Z,23.32
2018-02-18T01:23:14.762Z,23.41
2018-02-18T01:24:15.010Z,23.80
2018-02-18T01:25:15.261Z,23.32
2018-02-18T01:26:15.512Z,23.41
2018-02-18T01:27:15.764Z,23.41
2018-02-18T01:28:16.016Z,23.32
2018-02-18T01:29:16.263Z,23.40
2018-02-18T01:30:16.518Z,23.51
2018-02-18T01:31:16.772Z,23.51
2018-02-18T01:32:17.023Z,23.41
2018-02-18T01:33:18.216Z,23.41
2018-02-18T01:34:17.508Z,23.32
2018-02-18T01:35:17.759Z,23.71
2018-02-18T01:36:18.021Z,23.51
2018-02-18T01:37:18.285Z,23.51
2018-02-18T01:38:18.508Z,23.41
2018-02-18T01:39:18.756Z,23.51
2018-02-18T01:40:19.007Z,23.41
2018-02-18T01:41:19.243Z,23.71
2018-02-18T01:42:19.493Z,23.61
2018-02-18T01:43:19.750Z,23.71
2018-02-18T01:44:19.988Z,23.61
2018-02-18T01:45:20.719Z,23.61
2018-02-18T01:46:20.487Z,23.71
2018-02-18T01:47:20.720Z,23.22
2018-02-18T01:48:21.719Z,23.60
2018-02-18T01:49:21.219Z,23.71
2018-02-18T01:50:21.467Z,23.69
2018-02-18T01:51:21.704Z,23.40
2018-02-18T01:52:21.952Z,23.61
2018-02-18T01:53:22.195Z,23.41
2018-02-18T01:54:23.229Z,23.51
2018-02-18T01:55:23.221Z,23.61
2018-02-18T01:56:23.727Z,23.41
2018-02-18T01:57:23.155Z,23.22
2018-02-18T01:58:23.406Z,23.71
2018-02-18T01:59:23.667Z,23.51
2018-02-18T02:00:24.827Z,23.61
2018-02-18T02:01:24.170Z,23.61
2018-02-18T02:02:24.404Z,23.13
2018-02-18T02:03:24.656Z,23.41
2018-02-18T02:04:24.902Z,23.32
2018-02-18T02:05:25.160Z,23.32
2018-02-18T02:06:25.402Z,23.41
2018-02-18T02:07:25.658Z,23.13
2018-02-18T02:08:25.899Z,23.51
2018-02-18T02:09:26.724Z,23.61
2018-02-18T02:10:26.401Z,23.50
2018-02-18T02:11:26.637Z,23.51
2018-02-18T02:12:26.885Z,23.51
2018-02-18T02:13:27.134Z,23.61
2018-02-18T02:14:27.393Z,23.41
2018-02-18T02:15:27.645Z,23.41
2018-02-18T02:16:27.879Z,23.51
2018-02-18T02:17:28.135Z,23.41
2018-02-18T02:18:28.377Z,23.22
2018-02-18T02:19:28.614Z,23.22
2018-02-18T02:20:28.874Z,23.51
2018-02-18T02:21:29.125Z,23.22
2018-02-18T02:22:29.362Z,23.22
2018-02-18T02:23:30.228Z,23.41
2018-02-18T02:24:30.728Z,23.41
2018-02-18T02:25:30.103Z,23.32
2018-02-18T02:26:30.360Z,23.22
2018-02-18T02:27:30.592Z,23.32
2018-02-18T02:28:30.851Z,23.22
2018-02-18T02:29:31.092Z,23.13
2018-02-18T02:30:31.334Z,23.22
2018-02-18T02:31:31.591Z,23.32
2018-02-18T02:32:32.730Z,23.41
2018-02-18T02:33:32.063Z,23.22
2018-02-18T02:34:32.323Z,23.41
2018-02-18T02:35:32.565Z,23.41
2018-02-18T02:36:32.833Z,23.40
2018-02-18T02:37:33.058Z,23.41
2018-02-18T02:38:33.306Z,23.41
2018-02-18T02:39:34.232Z,23.13
2018-02-18T02:40:33.796Z,23.32
2018-02-18T02:41:34.039Z,23.22
2018-02-18T02:42:34.289Z,23.32
2018-02-18T02:43:34.529Z,23.32
2018-02-18T02:44:34.776Z,23.22
2018-02-18T02:45:35.029Z,23.22
2018-02-18T02:46:35.276Z,23.22
2018-02-18T02:47:36.273Z,23.40
2018-02-18T02:48:35.815Z,23.32
2018-02-18T02:49:42.186Z,23.41
2018-02-18T02:50:42.727Z,23.32
2018-02-18T02:51:43.896Z,23.22
2018-02-18T02:52:37.032Z,23.21
2018-02-18T02:53:43.519Z,23.03
2018-02-18T02:54:44.696Z,23.22
2018-02-18T02:55:43.948Z,23.03
2018-02-18T02:56:44.524Z,23.22
2018-02-18T02:57:38.574Z,23.22
2018-02-18T02:58:38.824Z,23.22
2018-02-18T02:59:39.072Z,23.22
2018-02-18T03:00:39.330Z,23.03
2018-02-18T03:01:39.568Z,23.22
2018-02-18T03:02:39.815Z,23.61
2018-02-18T03:03:40.067Z,23.13
2018-02-18T03:04:40.316Z,23.13
2018-02-18T03:05:40.566Z,23.13
2018-02-18T03:06:40.818Z,23.22
2018-02-18T03:07:41.067Z,23.13
2018-02-18T03:08:41.309Z,23.13
2018-02-18T03:09:41.561Z,23.03
2018-02-18T03:10:41.811Z,23.03
2018-02-18T03:11:42.065Z,23.22
2018-02-18T03:12:42.310Z,23.13
2018-02-18T03:13:42.560Z,23.03
2018-02-18T03:14:42.809Z,23.03
2018-02-18T03:15:43.068Z,23.03
2018-02-18T03:16:43.315Z,23.03
2018-02-18T03:17:45.850Z,23.03
2018-02-18T03:18:43.803Z,23.03
2018-02-18T03:19:44.062Z,23.22
2018-02-18T03:20:44.312Z,23.03
2018-02-18T03:21:44.554Z,23.03
2018-02-18T03:22:45.289Z,23.03
2018-02-18T03:23:45.033Z,22.84
2018-02-18T03:24:45.804Z,23.03
2018-02-18T03:25:46.330Z,23.03
2018-02-18T03:26:46.792Z,23.13
2018-02-18T03:27:46.116Z,22.83
2018-02-18T03:28:46.375Z,23.21
2018-02-18T03:29:47.294Z,22.83
2018-02-18T03:30:46.862Z,22.84
2018-02-18T03:31:47.129Z,23.03
2018-02-18T03:32:47.358Z,23.03
2018-02-18T03:33:47.602Z,22.83
2018-02-18T03:34:47.856Z,23.03
2018-02-18T03:35:48.107Z,23.22
2018-02-18T03:36:49.293Z,23.13
2018-02-18T03:37:48.602Z,23.03
2018-02-18T03:38:49.794Z,23.13
2018-02-18T03:39:49.112Z,23.02
2018-02-18T03:40:49.338Z,22.84
2018-02-18T03:41:49.600Z,22.84
2018-02-18T03:42:49.861Z,22.83
2018-02-18T03:43:50.067Z,22.84
2018-02-18T03:44:50.310Z,22.84
2018-02-18T03:45:50.579Z,22.93
2018-02-18T03:46:50.809Z,22.84
2018-02-18T03:47:51.817Z,22.84
2018-02-18T03:48:51.298Z,23.03
2018-02-18T03:49:51.549Z,22.84
2018-02-18T03:50:51.807Z,22.83
2018-02-18T03:51:52.801Z,23.02
2018-02-18T03:52:52.294Z,22.84
2018-02-18T03:53:52.545Z,23.03
2018-02-18T03:54:52.812Z,23.03
2018-02-18T03:55:53.037Z,22.84
2018-02-18T03:56:53.289Z,22.84
2018-02-18T03:57:53.546Z,23.03
2018-02-18T03:58:54.297Z,22.84
2018-02-18T03:59:54.798Z,22.74
2018-02-18T04:00:54.271Z,23.13
2018-02-18T04:01:54.526Z,22.93
2018-02-18T04:02:55.299Z,23.13
2018-02-18T04:03:55.029Z,23.03
2018-02-18T04:04:55.287Z,22.84
2018-02-18T04:05:56.306Z,23.03
2018-02-18T04:06:55.757Z,22.93
2018-02-18T04:07:56.009Z,23.03
2018-02-18T04:08:56.248Z,23.03
2018-02-18T04:09:56.497Z,22.93
2018-02-18T04:10:56.763Z,23.13
2018-02-18T04:11:57.800Z,23.03
2018-02-18T04:12:57.245Z,22.92
2018-02-18T04:13:57.495Z,23.03
2018-02-18T04:14:58.302Z,23.03
2018-02-18T04:15:57.987Z,23.13
2018-02-18T04:16:58.240Z,23.03
2018-02-18T04:17:58.492Z,23.32
2018-02-18T04:18:58.754Z,22.93
2018-02-18T04:19:59.805Z,23.13
2018-02-18T04:20:59.233Z,23.03
2018-02-18T04:21:59.477Z,23.03
2018-02-18T04:22:59.726Z,23.22
2018-02-18T04:23:59.986Z,23.22
2018-02-18T04:25:00.226Z,23.31
2018-02-18T04:26:00.495Z,23.03
2018-02-18T04:27:00.726Z,22.93
2018-02-18T04:28:00.970Z,23.21
2018-02-18T04:29:01.233Z,23.22
2018-02-18T04:30:02.306Z,23.03
2018-02-18T04:31:01.709Z,23.22
2018-02-18T04:32:01.962Z,23.22
2018-02-18T04:33:02.202Z,22.93
2018-02-18T04:34:02.455Z,22.93
2018-02-18T04:35:02.704Z,22.73
2018-02-18T04:36:02.964Z,22.93
2018-02-18T04:37:03.214Z,23.02
2018-02-18T04:38:03.473Z,22.93
2018-02-18T04:39:03.710Z,22.93
2018-02-18T04:40:03.959Z,23.03
2018-02-18T04:41:04.876Z,22.93
2018-02-18T04:42:05.311Z,22.84
2018-02-18T04:43:04.677Z,22.74
2018-02-18T04:44:04.923Z,22.64
2018-02-18T04:45:05.183Z,22.84
2018-02-18T04:46:05.435Z,22.84
2018-02-18T04:47:05.690Z,22.64
2018-02-18T04:48:05.931Z,22.64
2018-02-18T04:49:06.176Z,22.84
2018-02-18T04:50:06.431Z,22.84
2018-02-18T04:51:06.677Z,22.73
2018-02-18T04:52:06.926Z,22.84
2018-02-18T04:53:07.159Z,23.03
2018-02-18T04:54:07.415Z,22.64
2018-02-18T04:55:08.328Z,22.55
2018-02-18T04:56:07.913Z,22.64
2018-02-18T04:57:08.813Z,22.84
2018-02-18T04:58:08.397Z,22.45
2018-02-18T04:59:08.637Z,22.55
2018-02-18T05:00:08.887Z,22.55
2018-02-18T05:01:09.815Z,22.45
2018-02-18T05:02:10.315Z,22.55
2018-02-18T05:03:09.617Z,22.55
2018-02-18T05:04:09.859Z,22.55
2018-02-18T05:05:10.119Z,22.55
2018-02-18T05:06:10.355Z,22.45
2018-02-18T05:07:11.314Z,22.45
2018-02-18T05:08:10.843Z,22.45
2018-02-18T05:09:11.085Z,22.55
2018-02-18T05:10:11.818Z,22.45
2018-02-18T05:11:11.569Z,22.53
2018-02-18T05:12:11.819Z,22.45
2018-02-18T05:13:12.072Z,22.55
2018-02-18T05:14:12.315Z,22.53
2018-02-18T05:15:13.332Z,22.55
2018-02-18T05:16:13.320Z,22.55
2018-02-18T05:17:13.045Z,22.55
2018-02-18T05:18:13.291Z,22.55
2018-02-18T05:19:13.546Z,22.55
2018-02-18T05:20:13.793Z,22.45
2018-02-18T05:21:14.089Z,22.55
2018-02-18T05:22:14.302Z,22.55
2018-02-18T05:23:15.318Z,22.44
2018-02-18T05:24:14.772Z,22.55
2018-02-18T05:25:15.019Z,22.64
2018-02-18T05:26:15.821Z,22.55
2018-02-18T05:27:15.640Z,22.64
2018-02-18T05:28:15.881Z,22.55
2018-02-18T05:29:16.132Z,22.64
2018-02-18T05:30:16.388Z,22.55
2018-02-18T05:31:16.629Z,22.55
2018-02-18T05:32:16.878Z,22.55
2018-02-18T05:33:17.137Z,22.64
2018-02-18T05:34:17.371Z,22.45
2018-02-18T05:35:17.616Z,22.55
2018-02-18T05:36:17.867Z,22.74
2018-02-18T05:37:18.119Z,22.64
2018-02-18T05:38:18.364Z,22.55
2018-02-18T05:39:19.321Z,22.64
2018-02-18T05:40:18.834Z,22.53
2018-02-18T05:41:19.084Z,22.64
2018-02-18T05:42:19.341Z,22.55
2018-02-18T05:43:25.706Z,22.64
2018-02-18T05:44:26.116Z,22.64
2018-02-18T05:45:26.721Z,22.74
2018-02-18T05:46:26.897Z,22.64
2018-02-18T05:47:27.296Z,22.74
2018-02-18T05:48:27.700Z,22.64
2018-02-18T05:49:28.227Z,22.55
2018-02-18T05:50:28.394Z,22.55
2018-02-18T05:51:22.677Z,22.74
2018-02-18T05:52:22.932Z,22.74
2018-02-18T05:53:23.170Z,22.74
2018-02-18T05:54:23.418Z,22.53
2018-02-18T05:55:23.668Z,22.64
2018-02-18T05:56:23.917Z,22.64
2018-02-18T05:57:24.164Z,22.64
2018-02-18T05:58:24.416Z,22.55
2018-02-18T06:02:27.815Z,22.74
2018-02-18T06:03:28.074Z,22.55
2018-02-18T06:04:28.313Z,22.64
2018-02-18T06:05:28.558Z,22.74
2018-02-18T06:06:28.806Z,22.55
2018-02-18T06:07:29.057Z,22.64
2018-02-18T06:08:29.310Z,22.55
2018-02-18T06:09:29.559Z,22.55
2018-02-18T06:12:01.609Z,22.74
2018-02-18T06:13:03.924Z,22.74
2018-02-18T06:14:02.086Z,22.74
2018-02-18T06:15:02.335Z,22.53
2018-02-18T06:16:02.585Z,22.55
2018-02-18T06:17:02.837Z,22.55
2018-02-18T06:18:03.084Z,22.74
2018-02-18T06:19:03.336Z,22.36
2018-02-18T06:20:03.585Z,22.45
2018-02-18T06:21:03.834Z,22.55
2018-02-18T06:22:04.083Z,22.53
2018-02-18T06:23:04.337Z,22.55
2018-02-18T06:24:04.584Z,22.55
2018-02-18T06:25:04.839Z,22.36
2018-02-18T06:26:05.084Z,22.55
2018-02-18T06:27:05.336Z,22.64
2018-02-18T06:28:05.587Z,22.53
2018-02-18T06:29:05.837Z,22.55
2018-02-18T06:30:06.086Z,22.36
2018-02-18T06:31:06.943Z,22.36
2018-02-18T06:32:06.588Z,22.36
2018-02-18T06:33:06.832Z,22.36
2018-02-18T06:34:07.070Z,22.16
2018-02-18T06:35:07.935Z,22.36
2018-02-18T06:36:07.712Z,22.26
2018-02-18T06:37:07.979Z,22.36
2018-02-18T06:38:08.217Z,22.36
2018-02-18T06:39:08.460Z,22.26
2018-02-18T06:40:08.706Z,22.26
2018-02-18T06:41:08.955Z,22.26
2018-02-18T06:42:09.213Z,22.26
2018-02-18T06:43:09.455Z,22.26
2018-02-18T06:44:10.397Z,22.34
2018-02-18T06:45:09.940Z,22.26
2018-02-18T06:46:10.193Z,22.26
2018-02-18T06:47:11.413Z,22.26
2018-02-18T06:48:10.697Z,22.26
2018-02-18T06:49:10.918Z,22.25
2018-02-18T06:50:11.204Z,22.26
2018-02-18T06:51:11.443Z,22.25
2018-02-18T06:52:11.695Z,22.26
2018-02-18T06:53:11.944Z,22.26
2018-02-18T06:54:12.193Z,22.36
2018-02-18T06:55:12.457Z,22.36
2018-02-18T06:56:12.680Z,22.26
2018-02-18T06:57:14.400Z,22.16
2018-02-18T06:58:13.168Z,22.36
2018-02-18T06:59:13.427Z,22.36
2018-02-18T07:00:13.679Z,22.36
2018-02-18T07:01:13.912Z,22.16
2018-02-18T07:02:14.160Z,22.26
2018-02-18T07:03:14.427Z,22.36
2018-02-18T07:04:15.508Z,22.36
2018-02-18T07:05:15.059Z,22.25
2018-02-18T07:06:15.293Z,22.26
2018-02-18T07:07:15.541Z,22.16
2018-02-18T07:08:15.787Z,22.16
2018-02-18T07:09:16.906Z,22.36
2018-02-18T07:10:16.918Z,22.34
2018-02-18T07:11:16.509Z,22.16
2018-02-18T07:12:16.755Z,22.36
2018-02-18T07:13:17.007Z,22.36
2018-02-18T07:14:17.261Z,22.26
2018-02-18T07:15:17.512Z,22.36
2018-02-18T07:16:18.404Z,22.44
2018-02-18T07:17:18.905Z,22.45
2018-02-18T07:18:18.228Z,22.44
2018-02-18T07:19:18.479Z,22.45
2018-02-18T07:20:18.731Z,22.36
2018-02-18T07:21:18.982Z,22.45
2018-02-18T07:22:19.224Z,22.45
2018-02-18T07:23:19.474Z,22.34
2018-02-18T07:24:19.741Z,22.53
2018-02-18T07:25:19.967Z,22.53
2018-02-18T07:26:20.910Z,22.36
2018-02-18T07:27:20.451Z,22.45
2018-02-18T07:28:20.698Z,22.45
2018-02-18T07:29:20.942Z,22.45
2018-02-18T07:30:21.207Z,22.45
2018-02-18T07:31:22.913Z,22.53
2018-02-18T07:32:21.799Z,22.44
2018-02-18T07:33:22.909Z,22.45
2018-02-18T07:34:22.290Z,22.45
2018-02-18T07:35:23.409Z,22.45
2018-02-18T07:36:22.794Z,22.45
2018-02-18T07:37:23.049Z,22.45
2018-02-18T07:38:23.268Z,22.55
2018-02-18T07:39:23.513Z,22.45
2018-02-18T07:40:23.764Z,22.45
2018-02-18T07:41:24.914Z,22.64
2018-02-18T07:42:24.916Z,22.64
2018-02-18T07:43:25.418Z,22.45
2018-02-18T07:44:24.720Z,22.45
2018-02-18T07:45:25.510Z,22.53
2018-02-18T07:46:25.302Z,22.55
2018-02-18T07:47:25.540Z,22.53
2018-02-18T07:48:25.786Z,22.53
2018-02-18T07:49:26.049Z,22.63
2018-02-18T07:50:26.914Z,22.64
2018-02-18T07:51:26.516Z,22.53
2018-02-18T07:52:26.764Z,22.74
2018-02-18T07:53:27.012Z,22.55
2018-02-18T07:54:27.257Z,22.55
2018-02-18T07:55:27.515Z,22.64
2018-02-18T07:56:27.753Z,22.45
2018-02-18T07:57:28.005Z,22.83
2018-02-18T07:58:28.273Z,22.64
2018-02-18T07:59:28.500Z,22.55
2018-02-18T08:00:28.773Z,22.64
2018-02-18T08:01:28.983Z,22.64
2018-02-18T08:02:29.248Z,22.45
2018-02-18T08:03:29.482Z,22.74
2018-02-18T08:04:30.465Z,22.64
2018-02-18T08:05:30.004Z,22.45
2018-02-18T08:06:30.946Z,22.64
2018-02-18T08:07:31.417Z,22.84
2018-02-18T08:08:30.730Z,22.64
2018-02-18T08:09:30.979Z,22.45
2018-02-18T08:10:31.226Z,22.45
2018-02-18T08:11:31.481Z,22.45
2018-02-18T08:12:31.751Z,22.64
2018-02-18T08:13:31.968Z,22.55
2018-02-18T08:14:32.243Z,22.64
2018-02-18T08:15:33.448Z,22.64
2018-02-18T08:16:32.693Z,22.63
2018-02-18T08:17:32.953Z,22.55
2018-02-18T08:18:33.924Z,22.36
2018-02-18T08:19:33.509Z,22.55
2018-02-18T08:20:33.751Z,22.36
2018-02-18T08:21:34.923Z,22.45
2018-02-18T08:22:34.254Z,22.64
2018-02-18T08:23:34.506Z,22.74
2018-02-18T08:24:34.798Z,22.64
2018-02-18T08:25:35.043Z,22.74
2018-02-18T08:26:35.920Z,22.55
2018-02-18T08:27:35.548Z,22.74
2018-02-18T08:28:35.754Z,22.63
2018-02-18T08:29:36.924Z,22.55
2018-02-18T08:30:36.929Z,22.73
2018-02-18T08:31:36.523Z,22.55
2018-02-18T08:32:36.791Z,22.55
2018-02-18T08:33:38.003Z,22.55
2018-02-18T08:34:37.286Z,22.64
2018-02-18T08:35:38.428Z,22.74
2018-02-18T08:36:44.426Z,22.55
2018-02-18T08:37:44.278Z,22.74
2018-02-18T08:38:44.867Z,22.64
2018-02-18T08:39:45.041Z,22.55
2018-02-18T08:40:45.442Z,22.64
2018-02-18T08:41:46.344Z,22.74
2018-02-18T08:42:46.051Z,22.36
2018-02-18T08:43:46.454Z,22.55
2018-02-18T08:44:40.741Z,22.74
2018-02-18T08:45:40.983Z,22.74
2018-02-18T08:49:13.047Z,22.55
2018-02-18T08:50:13.301Z,22.64
2018-02-18T08:51:13.554Z,22.55
2018-02-18T08:52:13.800Z,22.55
2018-02-18T08:53:14.055Z,22.55
2018-02-18T08:54:14.298Z,22.74
2018-02-18T08:55:14.548Z,22.64
2018-02-18T08:56:14.798Z,22.26
2018-02-18T08:57:15.047Z,22.64
2018-02-18T08:58:15.303Z,22.64
2018-02-18T08:59:15.551Z,22.64
2018-02-18T09:00:15.799Z,22.45
2018-02-18T09:01:16.050Z,22.64
2018-02-18T09:02:16.299Z,22.55
2018-02-18T09:03:16.553Z,22.55
2018-02-18T09:04:16.798Z,22.45
2018-02-18T09:05:17.047Z,22.55
2018-02-18T09:06:17.304Z,22.55
2018-02-18T09:07:17.551Z,22.45
2018-02-18T09:08:17.802Z,22.55
2018-02-18T09:09:18.053Z,22.26
2018-02-18T09:10:18.302Z,22.64
2018-02-18T09:11:18.554Z,22.64
2018-02-18T09:12:18.799Z,22.26
2018-02-18T09:13:19.049Z,22.26
2018-02-18T09:14:19.307Z,22.45
2018-02-18T09:16:51.327Z,22.16
2018-02-18T09:17:51.581Z,22.36
2018-02-18T09:18:51.829Z,22.26
2018-02-18T09:19:52.081Z,22.26
2018-02-18T09:20:52.334Z,22.26
2018-02-18T09:21:52.582Z,22.26
2018-02-18T09:22:52.831Z,22.26
2018-02-18T09:23:53.080Z,22.55
2018-02-18T09:24:53.330Z,22.16
2018-02-18T09:25:53.582Z,22.64
2018-02-18T09:26:53.833Z,22.55
2018-02-18T09:27:54.081Z,22.16
2018-02-18T09:28:54.331Z,22.74
2018-02-18T09:32:26.410Z,22.36
2018-02-18T09:33:28.408Z,22.26
2018-02-18T09:34:26.908Z,22.26
2018-02-18T09:35:27.142Z,22.36
2018-02-18T09:36:27.392Z,22.64
2018-02-18T09:37:27.641Z,22.64
2018-02-18T09:38:27.891Z,22.26
2018-02-18T09:39:28.141Z,22.16
2018-02-18T09:40:28.393Z,22.16
2018-02-18T09:41:28.640Z,22.16
2018-02-18T09:42:28.891Z,22.45
2018-02-18T09:43:29.151Z,22.26
2018-02-18T09:44:29.393Z,22.64
2018-02-18T09:45:29.645Z,22.84
2018-02-18T09:46:29.891Z,22.26
2018-02-18T09:47:30.143Z,22.26
2018-02-18T09:48:30.904Z,22.36
2018-02-18T09:49:30.642Z,22.45
2018-02-18T09:50:30.891Z,22.26
2018-02-18T09:51:31.909Z,22.93
2018-02-18T09:52:31.979Z,22.64
2018-02-18T09:53:31.760Z,22.64
2018-02-18T09:54:32.020Z,22.74
2018-02-18T09:55:32.256Z,22.16
2018-02-18T09:56:33.407Z,22.16
2018-02-18T09:57:33.410Z,22.16
2018-02-18T09:58:33.907Z,22.26
2018-02-18T09:59:34.004Z,22.36
2018-02-18T10:00:33.568Z,22.26
2018-02-18T10:01:33.818Z,22.36
2018-02-18T10:02:34.068Z,22.45
2018-02-18T10:03:34.332Z,22.36
2018-02-18T10:04:34.571Z,22.26
2018-02-18T10:05:35.408Z,22.45
2018-02-18T10:06:35.914Z,22.45
2018-02-18T10:07:35.329Z,22.26
2018-02-18T10:08:36.461Z,22.16
2018-02-18T10:09:35.995Z,22.26
2018-02-18T10:10:36.243Z,22.55
2018-02-18T10:11:36.505Z,22.45
2018-02-18T10:12:36.753Z,22.26
2018-02-18T10:13:37.911Z,22.55
2018-02-18T10:14:37.248Z,22.64
2018-02-18T10:15:38.412Z,22.45
2018-02-18T10:16:37.728Z,22.26
2018-02-18T10:17:38.923Z,22.26
2018-02-18T10:18:38.219Z,22.74
2018-02-18T10:19:38.456Z,22.26
2018-02-18T10:20:38.709Z,22.16
2018-02-18T10:21:38.960Z,22.16
2018-02-18T10:22:39.198Z,22.26
2018-02-18T10:23:39.444Z,22.16
2018-02-18T10:24:39.697Z,22.26
2018-02-18T10:25:39.942Z,22.36
2018-02-18T10:26:40.175Z,22.45
2018-02-18T10:27:40.431Z,22.45
2018-02-18T10:28:40.675Z,22.26
2018-02-18T10:29:40.921Z,22.16
2018-02-18T10:30:41.176Z,22.16
2018-02-18T10:31:41.410Z,22.36
2018-02-18T10:32:41.645Z,22.45
2018-02-18T10:33:41.910Z,22.64
2018-02-18T10:34:43.915Z,22.26
2018-02-18T10:35:42.553Z,22.26
2018-02-18T10:36:42.798Z,22.45
2018-02-18T10:37:43.061Z,22.74
2018-02-18T10:38:43.289Z,22.45
2018-02-18T10:39:43.539Z,22.36
2018-02-18T10:40:43.787Z,22.26
2018-02-18T10:41:44.055Z,22.26
2018-02-18T10:42:44.314Z,22.26
2018-02-18T10:43:44.558Z,22.64
2018-02-18T10:44:44.806Z,22.55
2018-02-18T10:45:45.062Z,22.26
2018-02-18T10:46:45.298Z,22.64
2018-02-18T10:47:45.548Z,22.26
2018-02-18T10:48:45.807Z,22.26
2018-02-18T10:49:46.070Z,22.64
2018-02-18T10:50:46.319Z,22.36
2018-02-18T10:51:46.576Z,22.26
2018-02-18T10:52:46.820Z,22.64
2018-02-18T10:53:47.917Z,22.55
2018-02-18T10:54:47.316Z,22.44
2018-02-18T10:55:48.422Z,22.64
2018-02-18T10:56:47.821Z,22.26
2018-02-18T10:57:48.070Z,22.26
2018-02-18T10:58:48.324Z,22.63
2018-02-18T10:59:48.565Z,22.74
2018-02-18T11:00:48.811Z,22.64
2018-02-18T11:01:49.072Z,22.64
2018-02-18T11:02:49.317Z,22.74
2018-02-18T11:03:50.425Z,22.74
2018-02-18T11:04:49.804Z,22.64
2018-02-18T11:05:50.047Z,22.74
2018-02-18T11:06:50.300Z,22.55
2018-02-18T11:07:50.549Z,22.64
2018-02-18T11:08:50.783Z,22.63
2018-02-18T11:09:51.076Z,22.64
2018-02-18T11:10:51.291Z,22.73
2018-02-18T11:11:51.544Z,22.64
2018-02-18T11:12:51.797Z,22.74
2018-02-18T11:13:52.928Z,22.53
2018-02-18T11:16:24.051Z,22.64
2018-02-18T11:17:24.302Z,22.64
2018-02-18T11:18:24.534Z,22.64
2018-02-18T11:19:26.363Z,22.74
2018-02-18T11:20:25.004Z,22.74
2018-02-18T11:21:25.254Z,22.55
2018-02-18T11:22:25.505Z,22.55
2018-02-18T11:23:25.790Z,22.55
2018-02-18T11:24:26.004Z,22.64
2018-02-18T11:25:26.254Z,22.55
2018-02-18T11:26:26.503Z,22.55
2018-02-18T11:27:26.752Z,22.64
2018-02-18T11:28:27.002Z,22.55
2018-02-18T11:29:33.369Z,22.36
2018-02-18T11:30:33.773Z,22.55
2018-02-18T11:31:34.187Z,22.64
2018-02-18T11:32:34.587Z,22.74
2018-02-18T11:33:36.945Z,22.45
2018-02-18T11:34:29.151Z,22.55
2018-02-18T11:35:37.889Z,22.55
2018-02-18T11:36:35.893Z,22.45
2018-02-18T11:37:36.294Z,22.64
2018-02-18T11:38:30.579Z,22.64
2018-02-18T11:39:30.833Z,22.64
2018-02-18T11:40:31.081Z,22.64
2018-02-18T11:41:31.329Z,22.73
2018-02-18T11:42:31.582Z,22.64
2018-02-18T11:43:31.829Z,22.55
2018-02-18T11:44:32.080Z,22.64
2018-02-18T11:45:32.324Z,22.55
2018-02-18T11:46:32.596Z,22.84
2018-02-18T11:47:32.812Z,22.74
2018-02-18T11:48:33.060Z,22.55
2018-02-18T11:49:33.311Z,22.45
2018-02-18T11:50:33.558Z,22.64
2018-02-18T11:51:33.807Z,22.45
2018-02-18T11:52:34.057Z,22.84
2018-02-18T11:53:34.306Z,22.55
2018-02-18T11:54:34.555Z,22.45
2018-02-18T11:55:34.804Z,22.64
2018-02-18T11:56:35.056Z,22.74
2018-02-18T11:57:35.305Z,22.74
2018-02-18T11:58:35.554Z,22.45
2018-02-18T11:59:35.803Z,22.64
2018-02-18T12:00:36.052Z,22.64
2018-02-18T12:01:36.302Z,22.74
2018-02-18T12:02:36.553Z,22.74
2018-02-18T12:03:36.803Z,22.74
2018-02-18T12:04:37.072Z,22.45
2018-02-18T12:05:37.320Z,22.45
2018-02-18T12:06:37.567Z,22.36
2018-02-18T12:07:37.819Z,22.84
2018-02-18T12:08:38.068Z,22.84
2018-02-18T12:09:38.320Z,22.45
2018-02-18T12:10:38.600Z,22.45
2018-02-18T12:11:38.819Z,22.74
2018-02-18T12:12:39.068Z,22.84
2018-02-18T12:13:39.317Z,22.45
2018-02-18T12:14:39.568Z,22.64
2018-02-18T12:15:39.812Z,22.45
2018-02-18T12:16:40.067Z,22.45
2018-02-18T12:17:40.322Z,22.26
2018-02-18T12:18:40.567Z,22.74
2018-02-18T12:19:40.817Z,22.74
2018-02-18T12:20:41.066Z,22.64
2018-02-18T12:21:41.315Z,22.45
2018-02-18T12:22:41.565Z,22.55
2018-02-18T12:23:41.814Z,22.36
2018-02-18T12:24:42.063Z,22.45
2018-02-18T12:25:42.319Z,22.36
2018-02-18T12:26:42.566Z,22.36
2018-02-18T12:27:42.818Z,22.36
2018-02-18T12:28:43.068Z,22.36
2018-02-18T12:29:43.319Z,22.55
2018-02-18T12:30:43.567Z,22.45
2018-02-18T12:31:43.816Z,22.45
2018-02-18T12:32:44.065Z,22.36
2018-02-18T12:33:44.320Z,22.55
2018-02-18T12:34:44.567Z,22.45
2018-02-18T12:35:44.819Z,22.45
2018-02-18T12:36:45.069Z,22.45
2018-02-18T12:37:45.318Z,22.45
2018-02-18T12:38:45.568Z,22.36
2018-02-18T12:39:45.823Z,22.64
2018-02-18T12:40:46.069Z,22.45
2018-02-18T12:41:46.320Z,22.45
2018-02-18T12:42:46.567Z,22.55
2018-02-18T12:43:46.820Z,22.45
2018-02-18T12:44:47.068Z,22.45
2018-02-18T12:45:47.318Z,22.36
2018-02-18T12:46:47.567Z,22.36
2018-02-18T12:47:47.818Z,22.45
2018-02-18T12:48:48.067Z,22.45
2018-02-18T12:49:48.319Z,22.36
2018-02-18T12:50:48.567Z,22.55
2018-02-18T12:51:48.818Z,22.45
2018-02-18T12:52:49.068Z,22.45
2018-02-18T12:53:49.324Z,22.36
2018-02-18T12:54:49.566Z,22.45
2018-02-18T12:55:49.818Z,22.45
2018-02-18T12:56:50.065Z,22.45
2018-02-18T12:57:50.319Z,22.45
2018-02-18T12:58:50.568Z,22.36
2018-02-18T12:59:50.821Z,22.45
2018-02-18T13:00:51.069Z,22.36
2018-02-18T13:01:51.318Z,22.36
2018-02-18T13:02:51.568Z,22.36
2018-02-18T13:03:51.817Z,22.45
2018-02-18T13:04:52.067Z,22.45
2018-02-18T13:05:52.322Z,22.45
2018-02-18T13:06:52.570Z,22.36
2018-02-18T13:07:52.820Z,22.55
2018-02-18T13:08:53.070Z,22.36
2018-02-18T13:09:53.320Z,22.45
2018-02-18T13:10:53.570Z,22.45
2018-02-18T13:11:53.820Z,22.45